Time;durP1;ratioP1;P1;durP2;ratioP2;P2;SDS_P1;SDS_P2;PMS_P1;PMS_P2;Temp;Humidity;BMP_temperature;BMP_pressure;BME280_temperature;BME280_humidity;BME280_pressure;Samples;Min_cycle;Max_cycle;Signal;HPM_P1;HPM_P2
2021/11/03 00:01:21;;;;;;;86.45;26.35;;;;;;;2.67;86.52;100240.50;4990870;28;20093;-77
2021/11/03 00:03:48;;;;;;;95.70;26.40;;;;;;;2.70;86.97;100243.00;4991486;28;20042;-76
2021/11/03 00:06:16;;;;;;;102.00;28.00;;;;;;;2.70;86.95;100248.22;4992448;28;20049;-74
2021/11/03 00:08:42;;;;;;;93.85;25.33;;;;;;;2.66;87.01;100244.03;4992123;28;20050;-75
2021/11/03 00:11:08;;;;;;;91.65;24.27;;;;;;;2.61;86.93;100243.34;4991827;28;20048;-74
2021/11/03 00:13:34;;;;;;;92.78;25.15;;;;;;;2.66;87.24;100241.41;4955004;28;20059;-76
2021/11/03 00:16:00;;;;;;;93.55;23.90;;;;;;;2.70;87.51;100240.38;4989261;28;20065;-77
2021/11/03 00:18:26;;;;;;;81.50;22.25;;;;;;;2.72;87.08;100241.19;4990546;28;20471;-74
2021/11/03 00:20:53;;;;;;;77.30;23.33;;;;;;;2.75;87.47;100233.28;4955667;28;20066;-74
2021/11/03 00:23:19;;;;;;;89.18;24.23;;;;;;;2.82;87.21;100227.81;4955310;28;20138;-76
2021/11/03 00:25:48;;;;;;;103.55;23.25;;;;;;;2.78;87.31;100228.81;4972517;28;20125;-75
2021/11/03 00:28:16;;;;;;;94.90;23.83;;;;;;;2.81;87.54;100234.78;4973531;28;20459;-74
2021/11/03 00:30:43;;;;;;;101.50;22.42;;;;;;;2.75;87.35;100235.88;4972199;28;20053;-74
2021/11/03 00:33:09;;;;;;;102.35;25.85;;;;;;;2.78;87.08;100240.13;4972515;28;20602;-75
2021/11/03 00:35:35;;;;;;;107.85;23.67;;;;;;;2.81;87.55;100250.47;4988443;28;20042;-76
2021/11/03 00:38:00;;;;;;;108.97;27.10;;;;;;;2.81;87.08;100226.97;4992023;28;20120;-76
2021/11/03 00:40:26;;;;;;;125.32;24.95;;;;;;;2.89;86.89;100234.50;4974146;28;20141;-74
2021/11/03 00:42:52;;;;;;;131.02;27.48;;;;;;;2.90;87.36;100226.63;4974497;28;20038;-75
2021/11/03 00:45:20;;;;;;;89.25;26.40;;;;;;;2.95;86.83;100231.66;4990218;28;20049;-74
2021/11/03 00:47:46;;;;;;;100.88;25.15;;;;;;;2.92;86.73;100223.97;4974761;28;20586;-75
2021/11/03 00:50:13;;;;;;;98.65;26.23;;;;;;;2.91;87.09;100215.25;4960433;28;20106;-75
2021/11/03 00:52:40;;;;;;;98.30;24.70;;;;;;;2.96;87.03;100220.31;4963204;28;20129;-76
2021/11/03 00:55:06;;;;;;;138.25;27.48;;;;;;;2.96;86.85;100236.00;4975095;28;20618;-77
2021/11/03 00:57:33;;;;;;;124.45;26.40;;;;;;;2.89;86.74;100224.94;4961763;28;20070;-77
2021/11/03 00:59:59;;;;;;;113.18;28.48;;;;;;;2.92;87.54;100218.75;4974333;28;20158;-75
2021/11/03 01:02:25;;;;;;;128.18;25.45;;;;;;;2.93;87.21;100220.44;4959561;28;20066;-77
2021/11/03 01:04:52;;;;;;;108.93;24.00;;;;;;;2.94;87.23;100219.53;4970767;28;20054;-77
2021/11/03 01:07:17;;;;;;;101.47;26.92;;;;;;;2.85;86.95;100220.69;4978214;28;20046;-76
2021/11/03 01:09:43;;;;;;;109.97;24.52;;;;;;;2.85;87.54;100220.69;4995803;28;20205;-78
2021/11/03 01:12:10;;;;;;;102.53;26.02;;;;;;;2.95;87.73;100220.38;4962112;28;20491;-76
2021/11/03 01:14:37;;;;;;;105.85;24.38;;;;;;;2.91;87.78;100211.81;4970183;28;20581;-76
2021/11/03 01:17:04;;;;;;;139.70;28.73;;;;;;;2.95;87.53;100205.53;4975995;28;20047;-77
2021/11/03 01:19:30;;;;;;;97.97;26.27;;;;;;;3.00;87.28;100210.63;4939848;29;20468;-76
2021/11/03 01:21:56;;;;;;;110.53;26.27;;;;;;;3.00;87.83;100208.00;4954756;29;20039;-74
2021/11/03 01:24:22;;;;;;;99.43;25.45;;;;;;;2.98;87.86;100202.84;4975940;28;20128;-78
2021/11/03 01:26:48;;;;;;;107.25;24.73;;;;;;;3.00;87.60;100203.59;4995798;28;20471;-78
2021/11/03 01:29:14;;;;;;;108.00;25.30;;;;;;;3.05;87.72;100206.94;4978296;28;20070;-75
2021/11/03 01:31:40;;;;;;;117.80;26.40;;;;;;;3.03;87.56;100203.50;4991415;28;20400;-76
2021/11/03 01:34:06;;;;;;;94.75;25.33;;;;;;;3.04;87.66;100200.00;4978272;28;20046;-77
2021/11/03 01:36:33;;;;;;;158.25;27.08;;;;;;;3.08;87.62;100201.56;4978411;28;20047;-75
2021/11/03 01:39:02;;;;;;;104.00;23.88;;;;;;;3.10;87.30;100192.84;4996363;28;20388;-77
2021/11/03 01:41:28;;;;;;;92.13;24.90;;;;;;;3.10;87.38;100188.44;4996351;28;20050;-75
2021/11/03 01:44:09;;;;;;;101.00;25.85;;;;;;;3.04;87.81;100184.31;4959663;28;20393;-79
2021/11/03 01:46:39;;;;;;;106.60;25.17;;;;;;;3.06;87.67;100192.94;4977213;28;20050;-73
2021/11/03 01:49:19;;;;;;;101.50;26.20;;;;;;;3.13;87.78;100188.34;4978002;28;20065;-75
2021/11/03 01:51:57;;;;;;;105.82;24.75;;;;;;;3.15;87.79;100196.13;4978645;28;20050;-75
2021/11/03 01:54:40;;;;;;;105.50;26.35;;;;;;;3.13;87.69;100182.25;4981584;28;20050;-75
2021/11/03 01:57:16;;;;;;;101.50;24.65;;;;;;;3.16;87.67;100187.38;4976761;28;20045;-76
2021/11/03 01:59:44;;;;;;;96.93;24.50;;;;;;;3.13;87.77;100179.63;4976309;28;20046;-80
2021/11/03 02:02:12;;;;;;;128.25;28.92;;;;;;;3.10;87.73;100192.84;4952584;28;20049;-76
2021/11/03 02:04:38;;;;;;;118.55;28.77;;;;;;;3.14;88.09;100182.22;4960782;28;20487;-76
2021/11/03 02:07:08;;;;;;;101.38;24.17;;;;;;;3.19;88.11;100187.25;4960456;28;20042;-77
2021/11/03 02:09:34;;;;;;;144.93;27.10;;;;;;;3.15;88.17;100175.22;4975597;28;20038;-77
2021/11/03 02:12:00;;;;;;;114.03;24.83;;;;;;;3.19;88.07;100182.00;4976950;28;20476;-77
2021/11/03 02:14:26;;;;;;;106.97;26.35;;;;;;;3.23;88.32;100181.84;4976575;28;20057;-77
2021/11/03 02:16:52;;;;;;;100.07;25.20;;;;;;;3.21;88.00;100185.44;4974824;28;20046;-75
2021/11/03 02:19:31;;;;;;;107.80;26.58;;;;;;;3.22;87.83;100176.69;4975681;28;20046;-76
2021/11/03 02:22:05;;;;;;;107.05;26.38;;;;;;;3.24;88.33;100169.66;4959091;28;20153;-75
2021/11/03 02:24:39;;;;;;;97.30;24.23;;;;;;;3.28;88.00;100180.81;4930872;29;20078;-76
2021/11/03 02:27:05;;;;;;;91.85;24.90;;;;;;;3.29;88.32;100182.50;4946801;28;20046;-77
2021/11/03 02:29:31;;;;;;;119.20;26.17;;;;;;;3.27;88.15;100185.19;4944642;28;20053;-79
2021/11/03 02:32:15;;;;;;;98.47;24.83;;;;;;;3.28;88.17;100181.69;4955348;29;20436;-77
2021/11/03 02:34:41;;;;;;;139.05;27.33;;;;;;;3.31;88.41;100171.09;4922659;29;20046;-77
2021/11/03 02:37:29;;;;;;;115.88;25.92;;;;;;;3.32;88.02;100179.78;4939461;29;20166;-76
2021/11/03 02:40:15;;;;;;;98.97;26.05;;;;;;;3.32;87.87;100177.19;4937854;29;20047;-77
2021/11/03 02:42:45;;;;;;;118.30;25.90;;;;;;;3.26;88.44;100180.03;4919804;29;20043;-77
2021/11/03 02:45:20;;;;;;;113.10;27.20;;;;;;;3.24;88.62;100174.88;4938648;28;20887;-77
2021/11/03 02:47:46;;;;;;;119.20;26.55;;;;;;;3.25;88.59;100166.09;4937918;29;20054;-78
2021/11/03 02:50:13;;;;;;;129.88;26.38;;;;;;;3.31;88.68;100171.09;4963301;28;20039;-78
2021/11/03 02:52:39;;;;;;;128.07;29.42;;;;;;;3.32;88.52;100166.72;4915025;29;20424;-75
2021/11/03 02:55:07;;;;;;;138.70;27.70;;;;;;;3.34;88.75;100172.72;4941795;28;20463;-79
2021/11/03 02:57:33;;;;;;;;;;;;;;;3.30;88.64;100172.03;4938671;29;20094;-80
2021/11/03 03:00:00;;;;;;;125.68;27.67;;;;;;;3.28;88.75;100163.38;4946117;28;19922;-78
2021/11/03 03:02:26;;;;;;;124.75;28.48;;;;;;;3.31;88.82;100165.84;4957545;28;20386;-79
2021/11/03 03:04:54;;;;;;;125.63;26.98;;;;;;;3.35;89.01;100175.31;4972085;28;20043;-78
2021/11/03 03:07:20;;;;;;;132.85;26.88;;;;;;;3.33;88.73;100164.03;4929881;28;20488;-76
2021/11/03 03:09:47;;;;;;;125.50;29.88;;;;;;;3.37;88.90;100155.16;4964763;28;20047;-76
2021/11/03 03:12:18;;;;;;;111.32;28.50;;;;;;;3.44;88.64;100165.38;4954270;29;20043;-74
2021/11/03 03:14:49;;;;;;;110.05;27.60;;;;;;;3.43;88.95;100158.44;4954875;28;20047;-78
2021/11/03 03:17:17;;;;;;;109.75;27.88;;;;;;;3.49;88.66;100168.66;4940726;29;20053;-78
2021/11/03 03:19:45;;;;;;;107.25;28.35;;;;;;;3.56;88.47;100157.91;4937426;29;20086;-78
2021/11/03 03:22:12;;;;;;;115.43;26.40;;;;;;;3.54;88.12;100140.59;4937948;28;20057;-76
2021/11/03 03:24:38;;;;;;;124.40;30.17;;;;;;;3.59;88.01;100138.63;4954858;28;20450;-77
2021/11/03 03:27:05;;;;;;;130.75;28.50;;;;;;;3.61;88.06;100135.94;4957010;28;20042;-80
2021/11/03 03:29:32;;;;;;;140.30;29.90;;;;;;;3.61;88.07;100134.16;4973514;28;20094;-78
2021/11/03 03:31:59;;;;;;;110.45;27.33;;;;;;;3.63;87.79;100132.34;4956889;28;20480;-78
2021/11/03 03:34:25;;;;;;;112.97;28.63;;;;;;;3.64;87.97;100136.66;4973703;28;20043;-76
2021/11/03 03:36:53;;;;;;;120.57;28.25;;;;;;;3.65;88.00;100132.28;4972254;28;20057;-76
2021/11/03 03:39:20;;;;;;;113.53;29.27;;;;;;;3.66;87.91;100133.97;4972396;28;20094;-76
2021/11/03 03:42:06;;;;;;;120.05;28.40;;;;;;;3.65;88.00;100135.75;4956540;28;20050;-76
2021/11/03 03:44:32;;;;;;;103.20;27.10;;;;;;;3.63;88.15;100134.97;4956193;28;20181;-76
2021/11/03 03:46:57;;;;;;;123.03;30.33;;;;;;;3.64;88.00;100131.44;4973537;28;20066;-76
2021/11/03 03:49:25;;;;;;;128.57;26.87;;;;;;;3.62;88.12;100133.25;4972035;28;20101;-79
2021/11/03 03:51:51;;;;;;;135.00;29.38;;;;;;;3.66;87.89;100129.59;4972805;28;20337;-82
2021/11/03 03:54:17;;;;;;;110.93;27.38;;;;;;;3.63;88.19;100127.13;4956722;28;20054;-77
2021/11/03 03:56:43;;;;;;;147.23;30.35;;;;;;;3.58;88.27;100126.47;4941638;28;20097;-78
2021/11/03 03:59:09;;;;;;;129.75;29.10;;;;;;;3.64;88.37;100115.75;4956243;28;20137;-79
2021/11/03 04:01:38;;;;;;;106.50;25.98;;;;;;;3.64;88.54;100120.09;4956308;28;20043;-77
2021/11/03 04:04:08;;;;;;;152.93;31.25;;;;;;;3.62;88.36;100133.25;4972486;28;20051;-78
2021/11/03 04:06:34;;;;;;;112.57;29.20;;;;;;;3.67;88.21;100126.06;4956821;28;20050;-78
2021/11/03 04:09:03;;;;;;;138.63;35.42;;;;;;;3.57;88.57;100129.97;4972798;28;20078;-81
2021/11/03 04:11:29;;;;;;;127.63;29.85;;;;;;;3.62;88.63;100128.03;4940065;28;20553;-79
2021/11/03 04:13:55;;;;;;;115.03;30.27;;;;;;;3.65;88.63;100122.69;4972493;28;20143;-77
2021/11/03 04:16:23;;;;;;;113.13;28.90;;;;;;;3.67;88.75;100128.69;4973176;28;20069;-83
2021/11/03 04:18:50;;;;;;;138.68;34.03;;;;;;;3.68;88.32;100133.00;4957236;28;20054;-80
2021/11/03 04:21:18;;;;;;;113.13;29.20;;;;;;;3.71;88.58;100132.91;4975341;28;20046;-82
2021/11/03 04:23:45;;;;;;;120.25;31.10;;;;;;;3.68;88.66;100148.69;4942043;28;20414;-78
2021/11/03 04:26:26;;;;;;;126.00;34.58;;;;;;;3.77;88.34;100138.78;4972461;28;20808;-76
2021/11/03 04:28:52;;;;;;;112.75;30.65;;;;;;;3.72;88.38;100144.19;4943684;28;20077;-76
2021/11/03 04:31:19;;;;;;;107.82;29.02;;;;;;;3.78;88.63;100156.19;4963040;28;20042;-79
2021/11/03 04:33:46;;;;;;;109.32;31.65;;;;;;;3.81;88.22;100142.97;4963812;28;20558;-77
2021/11/03 04:36:12;;;;;;;112.35;29.65;;;;;;;3.83;87.94;100133.28;4999240;28;20137;-78
2021/11/03 04:38:38;;;;;;;113.22;30.98;;;;;;;3.79;88.02;100147.41;4999941;28;20129;-80
2021/11/03 04:41:04;;;;;;;103.20;31.38;;;;;;;3.83;88.07;100154.22;4966576;28;20568;-77
2021/11/03 04:43:30;;;;;;;111.45;30.50;;;;;;;3.86;88.15;100146.25;4982015;28;20045;-77
2021/11/03 04:45:56;;;;;;;116.40;30.23;;;;;;;3.82;87.99;100152.53;4966440;28;20052;-78
2021/11/03 04:48:22;;;;;;;109.95;30.98;;;;;;;3.77;88.05;100157.94;4981909;28;20167;-77
2021/11/03 04:50:48;;;;;;;107.32;27.10;;;;;;;3.82;87.82;100155.97;4964929;28;20069;-79
2021/11/03 04:53:14;;;;;;;110.22;32.55;;;;;;;3.85;87.95;100150.63;4980927;28;20387;-77
2021/11/03 04:55:41;;;;;;;106.55;28.52;;;;;;;3.85;88.12;100160.22;4990184;28;20047;-78
2021/11/03 04:58:08;;;;;;;100.60;30.05;;;;;;;3.80;87.92;100173.53;4979323;28;20067;-80
2021/11/03 05:00:35;;;;;;;114.35;31.25;;;;;;;3.88;88.01;100149.66;4979650;28;20038;-80
2021/11/03 05:03:03;;;;;;;;;;;;;;;3.84;87.78;100142.84;4963543;28;20065;-77
2021/11/03 05:05:29;;;;;;;104.85;28.23;;;;;;;3.83;88.07;100149.00;4945938;28;19922;-78
2021/11/03 05:07:55;;;;;;;97.50;29.70;;;;;;;3.87;87.86;100146.16;4946561;28;20043;-77
2021/11/03 05:10:22;;;;;;;105.68;28.33;;;;;;;3.87;87.81;100151.41;4962590;28;20531;-83
2021/11/03 05:12:49;;;;;;;97.75;27.67;;;;;;;3.87;87.41;100148.78;4964830;28;20039;-81
2021/11/03 05:15:16;;;;;;;104.13;27.17;;;;;;;3.94;87.63;100159.88;4979035;28;20058;-82
2021/11/03 05:17:44;;;;;;;99.07;28.90;;;;;;;4.00;87.29;100158.75;4962688;28;20137;-79
2021/11/03 05:20:10;;;;;;;92.93;27.88;;;;;;;3.87;87.32;100161.03;4962293;28;20047;-80
2021/11/03 05:22:36;;;;;;;92.55;28.38;;;;;;;3.92;86.69;100153.00;4962339;28;20054;-79
2021/11/03 05:25:04;;;;;;;96.32;27.15;;;;;;;3.95;87.17;100173.78;4947358;28;20042;-76
2021/11/03 05:27:30;;;;;;;87.43;29.00;;;;;;;3.94;87.21;100174.69;4981978;28;20047;-82
2021/11/03 05:29:57;;;;;;;95.90;29.10;;;;;;;3.94;87.26;100159.00;4964634;28;20047;-81
2021/11/03 05:32:23;;;;;;;89.82;26.88;;;;;;;3.94;87.16;100170.34;4955501;28;20551;-79
2021/11/03 05:34:50;;;;;;;87.32;25.27;;;;;;;3.96;87.10;100162.41;4961831;28;20038;-77
2021/11/03 05:37:16;;;;;;;95.72;27.35;;;;;;;4.02;86.89;100163.00;4962922;28;20450;-80
2021/11/03 05:39:42;;;;;;;101.63;28.73;;;;;;;3.99;87.10;100173.59;4977734;28;20057;-79
2021/11/03 05:42:09;;;;;;;85.85;26.42;;;;;;;3.98;86.76;100198.06;4977303;28;20042;-79
2021/11/03 05:44:35;;;;;;;89.13;28.65;;;;;;;3.94;87.12;100180.78;4960476;28;20094;-80
2021/11/03 05:47:01;;;;;;;97.45;28.02;;;;;;;4.03;87.01;100163.88;4972338;28;20042;-77
2021/11/03 05:49:29;;;;;;;103.20;29.48;;;;;;;4.12;86.72;100184.41;4957921;28;20046;-78
2021/11/03 05:51:57;;;;;;;91.63;30.02;;;;;;;4.02;86.51;100183.94;4943073;28;20052;-78
2021/11/03 05:54:26;;;;;;;101.78;30.73;;;;;;;3.99;86.57;100188.47;4976840;28;20082;-79
2021/11/03 05:56:54;;;;;;;91.05;27.75;;;;;;;4.01;86.61;100166.56;4943123;28;20046;-82
2021/11/03 05:59:26;;;;;;;92.97;30.10;;;;;;;4.10;86.76;100183.63;4953214;28;20052;-77
2021/11/03 06:01:57;;;;;;;96.43;28.00;;;;;;;4.11;86.94;100172.25;4908815;28;20496;-80
2021/11/03 06:04:25;;;;;;;100.60;32.67;;;;;;;4.20;86.17;100171.00;4973241;28;20065;-80
2021/11/03 06:06:53;;;;;;;96.10;28.23;;;;;;;4.20;86.10;100160.53;4928908;28;20051;-82
2021/11/03 06:09:19;;;;;;;92.82;29.08;;;;;;;4.14;86.62;100171.28;4926891;28;20042;-79
2021/11/03 06:11:47;;;;;;;104.47;30.02;;;;;;;4.23;86.34;100165.63;4942531;28;20042;-78
2021/11/03 06:14:13;;;;;;;91.95;27.45;;;;;;;4.31;86.08;100162.66;4943026;28;20396;-80
2021/11/03 06:16:39;;;;;;;95.22;28.15;;;;;;;4.31;86.01;100157.44;4941941;28;20049;-78
2021/11/03 06:19:05;;;;;;;91.80;27.40;;;;;;;4.29;85.86;100160.13;4941533;28;20053;-79
2021/11/03 06:21:32;;;;;;;83.60;25.70;;;;;;;4.36;85.58;100156.34;4958320;28;20138;-82
2021/11/03 06:23:59;;;;;;;93.22;31.30;;;;;;;4.36;85.32;100138.00;4942151;28;20074;-81
2021/11/03 06:26:25;;;;;;;88.72;28.75;;;;;;;4.42;85.60;100159.59;4959202;28;20444;-79
2021/11/03 06:28:57;;;;;;;104.43;30.65;;;;;;;4.47;85.23;100152.38;4957670;28;20631;-77
2021/11/03 06:31:23;;;;;;;92.68;30.02;;;;;;;4.50;84.79;100149.66;4959475;28;20089;-78
2021/11/03 06:33:49;;;;;;;95.60;29.92;;;;;;;4.46;85.03;100150.69;4958767;28;20257;-78
2021/11/03 06:36:16;;;;;;;96.22;29.10;;;;;;;4.35;84.97;100157.25;4945071;28;20053;-79
2021/11/03 06:38:42;;;;;;;86.35;27.02;;;;;;;4.45;85.67;100159.44;4961996;28;20121;-80
2021/11/03 06:41:09;;;;;;;98.07;29.10;;;;;;;4.44;84.69;100163.00;4926197;28;20138;-79
2021/11/03 06:43:38;;;;;;;87.50;28.60;;;;;;;4.40;85.17;100169.28;4941965;28;20051;-83
2021/11/03 06:46:04;;;;;;;94.53;30.08;;;;;;;4.41;84.66;100163.13;4942850;28;20049;-79
2021/11/03 06:48:30;;;;;;;87.22;27.10;;;;;;;4.49;85.12;100174.13;4957638;28;20051;-79
2021/11/03 06:50:56;;;;;;;87.72;29.63;;;;;;;4.37;85.02;100152.81;4926395;28;20117;-80
2021/11/03 06:53:24;;;;;;;78.05;25.15;;;;;;;4.41;84.70;100157.88;4925647;28;20046;-78
2021/11/03 06:55:54;;;;;;;90.82;29.30;;;;;;;4.47;84.22;100152.38;4941383;28;20077;-78
2021/11/03 06:58:23;;;;;;;94.25;30.38;;;;;;;4.51;84.64;100148.69;4925084;28;20081;-77
2021/11/03 07:00:53;;;;;;;88.15;28.60;;;;;;;4.48;83.75;100148.84;4957120;28;20380;-80
2021/11/03 07:03:22;;;;;;;91.30;29.55;;;;;;;4.51;84.28;100138.22;4941545;28;20059;-79
2021/11/03 07:05:50;;;;;;;92.07;28.67;;;;;;;4.55;84.47;100142.44;4941178;28;20051;-82
2021/11/03 07:08:16;;;;;;;;;;;;;;;4.56;83.99;100140.66;4926535;28;20049;-81
2021/11/03 07:10:45;;;;;;;96.82;31.08;;;;;;;4.57;84.12;100137.13;4925938;28;19968;-79
2021/11/03 07:13:11;;;;;;;96.75;28.60;;;;;;;4.57;84.28;100132.72;4941201;28;20042;-77
2021/11/03 07:15:38;;;;;;;82.63;29.08;;;;;;;4.61;84.34;100134.28;4925421;28;20078;-78
2021/11/03 07:18:05;;;;;;;91.35;29.50;;;;;;;4.62;83.82;100129.91;4926414;28;20161;-81
2021/11/03 07:20:31;;;;;;;91.90;30.92;;;;;;;4.68;83.79;100138.31;4960017;28;20050;-79
2021/11/03 07:22:57;;;;;;;87.68;30.80;;;;;;;4.74;83.82;100128.50;4960501;28;20062;-81
2021/11/03 07:25:24;;;;;;;90.57;30.70;;;;;;;4.78;82.94;100130.06;4945848;28;20054;-79
2021/11/03 07:27:52;;;;;;;83.57;28.40;;;;;;;4.80;83.48;100123.81;4927724;28;20042;-76
2021/11/03 07:30:24;;;;;;;88.72;29.92;;;;;;;4.85;83.13;100128.84;4957183;28;20369;-79
2021/11/03 07:32:50;;;;;;;86.95;29.80;;;;;;;4.81;83.17;100129.91;4940511;28;20038;-79
2021/11/03 07:35:16;;;;;;;93.43;31.95;;;;;;;4.76;82.87;100121.41;4940922;28;20049;-78
2021/11/03 07:37:42;;;;;;;88.68;28.88;;;;;;;4.82;82.99;100126.38;4925072;28;20047;-81
2021/11/03 07:40:12;;;;;;;89.18;30.30;;;;;;;4.91;82.91;100118.09;4973502;28;20062;-84
2021/11/03 07:42:38;;;;;;;90.38;31.30;;;;;;;4.91;82.45;100132.94;4941609;28;20042;-85
2021/11/03 07:45:04;;;;;;;80.72;29.90;;;;;;;4.93;82.69;100118.84;4956728;28;20456;-79
2021/11/03 07:47:31;;;;;;;76.07;28.27;;;;;;;4.88;82.62;100115.59;4974090;28;20567;-83
2021/11/03 07:49:57;;;;;;;86.07;29.98;;;;;;;4.94;82.74;100115.31;4940565;28;20110;-79
2021/11/03 07:52:23;;;;;;;80.53;28.90;;;;;;;4.90;82.62;100108.53;4955549;28;20069;-78
2021/11/03 07:54:49;;;;;;;80.47;28.85;;;;;;;5.04;82.59;100114.91;4975009;28;20101;-79
2021/11/03 07:57:15;;;;;;;87.07;32.20;;;;;;;5.04;82.40;100120.16;4940798;28;20043;-78
2021/11/03 07:59:43;;;;;;;93.13;29.75;;;;;;;5.01;82.76;100101.00;4973925;28;20047;-79
2021/11/03 08:02:09;;;;;;;94.15;31.25;;;;;;;5.06;82.17;100107.78;4972056;28;20042;-78
2021/11/03 08:04:35;;;;;;;91.50;32.08;;;;;;;5.09;81.87;100107.66;4956699;28;20052;-81
2021/11/03 08:07:02;;;;;;;89.80;29.60;;;;;;;5.06;81.80;100097.31;4924746;28;20050;-77
2021/11/03 08:09:27;;;;;;;89.85;28.88;;;;;;;5.10;81.99;100104.97;4974950;28;20129;-78
2021/11/03 08:11:58;;;;;;;87.88;29.10;;;;;;;5.09;81.98;100113.75;4972973;28;20053;-79
2021/11/03 08:14:27;;;;;;;86.38;29.95;;;;;;;5.15;82.42;100112.63;4974506;28;20052;-81
2021/11/03 08:17:06;;;;;;;88.97;32.13;;;;;;;5.19;81.60;100115.00;4974355;28;20047;-77
2021/11/03 08:19:42;;;;;;;89.97;32.45;;;;;;;5.24;81.95;100109.53;4941382;28;20412;-77
2021/11/03 08:22:10;;;;;;;93.07;30.65;;;;;;;5.16;81.58;100120.41;4942188;28;20078;-78
2021/11/03 08:24:37;;;;;;;90.13;29.05;;;;;;;5.30;81.66;100119.75;4975478;28;20054;-75
2021/11/03 08:27:04;;;;;;;80.68;28.98;;;;;;;5.25;81.44;100132.22;4973981;28;20701;-79
2021/11/03 08:29:29;;;;;;;99.75;34.80;;;;;;;5.17;81.41;100134.34;4940971;28;20047;-83
2021/11/03 08:31:58;;;;;;;93.38;32.13;;;;;;;5.16;81.59;100135.31;4940393;28;20110;-78
2021/11/03 08:34:26;;;;;;;81.70;30.63;;;;;;;5.23;81.24;100115.72;4940426;28;20057;-77
2021/11/03 08:36:53;;;;;;;89.72;32.92;;;;;;;5.14;81.38;100101.25;4940920;28;20078;-77
2021/11/03 08:39:22;;;;;;;88.65;32.95;;;;;;;5.23;81.35;100093.91;4956487;28;20047;-79
2021/11/03 08:41:48;;;;;;;88.18;33.75;;;;;;;5.27;81.07;100098.94;4973689;28;20049;-79
2021/11/03 08:44:16;;;;;;;96.15;32.50;;;;;;;5.30;80.72;100106.63;4940719;28;20046;-80
2021/11/03 08:46:42;;;;;;;93.53;35.22;;;;;;;5.33;81.09;100095.13;4956367;28;20054;-77
2021/11/03 08:49:08;;;;;;;84.82;32.28;;;;;;;5.40;80.34;100079.97;4956114;28;20093;-81
2021/11/03 08:51:34;;;;;;;89.93;31.83;;;;;;;5.43;80.26;100069.31;4972579;28;20051;-78
2021/11/03 08:54:03;;;;;;;87.82;34.67;;;;;;;5.34;80.55;100088.97;4973161;28;20043;-78
2021/11/03 08:56:30;;;;;;;86.90;31.88;;;;;;;5.35;80.74;100077.56;4972466;28;20097;-81
2021/11/03 08:58:55;;;;;;;91.45;32.80;;;;;;;5.46;80.89;100066.56;4958469;28;20074;-77
2021/11/03 09:01:22;;;;;;;94.45;33.50;;;;;;;5.54;79.95;100067.00;4972000;28;20074;-78
2021/11/03 09:03:48;;;;;;;85.85;30.17;;;;;;;5.44;79.83;100099.88;4972822;28;20488;-78
2021/11/03 09:06:14;;;;;;;104.88;34.80;;;;;;;5.51;80.40;100069.78;4973189;28;20053;-77
2021/11/03 09:08:41;;;;;;;90.22;33.50;;;;;;;5.56;79.48;100091.41;4972682;28;20130;-78
2021/11/03 09:11:08;;;;;;;100.22;33.53;;;;;;;5.60;79.69;100081.59;4955988;28;20042;-79
2021/11/03 09:13:34;;;;;;;91.13;32.42;;;;;;;5.57;80.33;100069.50;4972732;28;20129;-77
2021/11/03 09:16:02;;;;;;;95.32;35.88;;;;;;;5.51;80.22;100078.50;4941301;28;20073;-78
2021/11/03 09:18:29;;;;;;;99.57;33.60;;;;;;;5.54;79.57;100061.75;4975761;28;20110;-78
2021/11/03 09:20:56;;;;;;;104.53;33.97;;;;;;;5.50;80.43;100057.59;4976166;28;20059;-76
2021/11/03 09:23:23;;;;;;;82.72;30.50;;;;;;;5.56;80.24;100065.16;4975503;28;20420;-78
2021/11/03 09:25:52;;;;;;;93.95;32.85;;;;;;;5.62;80.39;100064.00;4975630;28;20042;-76
2021/11/03 09:28:23;;;;;;;87.70;33.08;;;;;;;5.59;80.07;100075.50;4975991;28;20046;-79
2021/11/03 09:30:53;;;;;;;81.97;31.65;;;;;;;5.57;79.57;100056.38;4960647;28;20058;-76
2021/11/03 09:33:19;;;;;;;92.20;34.20;;;;;;;5.60;80.13;100068.47;4990466;28;20042;-79
2021/11/03 09:35:47;;;;;;;98.80;39.10;;;;;;;5.65;79.72;100053.34;4980711;28;20046;-81
2021/11/03 09:38:17;;;;;;;94.18;34.42;;;;;;;5.67;79.41;100049.72;4978955;28;20124;-75
2021/11/03 09:40:53;;;;;;;94.28;35.08;;;;;;;5.68;79.38;100045.31;4979235;28;20042;-78
2021/11/03 09:43:42;;;;;;;92.93;34.22;;;;;;;5.68;79.32;100053.19;4975703;28;20046;-81
2021/11/03 09:46:36;;;;;;;99.95;35.78;;;;;;;5.76;79.71;100045.78;4978586;28;20050;-78
2021/11/03 09:49:09;;;;;;;94.50;36.25;;;;;;;5.72;79.42;100051.25;4963161;28;20111;-82
2021/11/03 09:51:37;;;;;;;92.03;33.83;;;;;;;5.80;79.92;100056.97;4978934;28;20039;-82
2021/11/03 09:54:09;;;;;;;92.72;35.53;;;;;;;5.82;79.67;100049.88;4933930;28;20046;-80
2021/11/03 09:56:42;;;;;;;92.70;33.95;;;;;;;5.83;79.43;100031.41;4959911;28;20043;-79
2021/11/03 09:59:53;;;;;;;94.28;36.13;;;;;;;5.74;80.16;100037.13;4962726;28;20046;-82
2021/11/03 10:02:52;;;;;;;98.75;35.58;;;;;;;5.75;80.46;100043.25;4932910;28;20051;-81
2021/11/03 10:05:36;;;;;;;87.80;32.58;;;;;;;5.73;80.12;100047.72;4883237;29;20037;-82
2021/11/03 10:08:37;;;;;;;103.18;34.20;;;;;;;5.76;80.76;100039.69;4880718;29;20040;-79
2021/11/03 10:11:33;;;;;;;96.30;35.10;;;;;;;5.71;80.35;100067.91;4877847;29;20041;-79
2021/11/03 10:14:01;;;;;;;97.50;35.22;;;;;;;5.70;81.43;100053.13;4877620;29;20053;-78
2021/11/03 10:16:35;;;;;;;87.73;32.33;;;;;;;5.70;81.38;100051.34;4861459;29;20057;-75
2021/11/03 10:19:14;;;;;;;97.70;35.35;;;;;;;5.74;81.32;100038.91;4880005;29;20519;-80
2021/11/03 10:21:49;;;;;;;82.18;30.75;;;;;;;5.72;81.82;100051.25;4864324;29;20061;-79
2021/11/03 10:24:16;;;;;;;92.70;34.35;;;;;;;5.75;82.20;100027.50;4863024;29;20530;-78
2021/11/03 10:27:00;;;;;;;93.88;36.03;;;;;;;5.79;82.02;100029.84;4878223;29;20848;-78
2021/11/03 10:29:31;;;;;;;98.80;35.38;;;;;;;5.74;82.41;100026.63;4879178;29;20053;-79
2021/11/03 10:32:20;;;;;;;105.40;35.92;;;;;;;5.71;83.14;100020.69;4880004;29;20036;-86
2021/11/03 10:34:59;;;;;;;104.85;37.42;;;;;;;5.71;82.95;100023.31;4871215;29;20478;-76
2021/11/03 10:37:35;;;;;;;101.30;34.78;;;;;;;5.73;83.33;100024.09;4879394;29;20720;-77
2021/11/03 10:40:21;;;;;;;97.57;37.28;;;;;;;5.66;83.30;100019.16;4878906;29;20045;-79
2021/11/03 10:42:55;;;;;;;96.60;35.08;;;;;;;5.69;83.65;100006.81;4942106;29;20485;-79
2021/11/03 10:45:30;;;;;;;107.65;35.95;;;;;;;5.73;83.81;100013.59;4925021;29;20039;-81
2021/11/03 10:48:17;;;;;;;107.88;37.90;;;;;;;5.69;83.99;100002.41;4924447;29;20047;-79
2021/11/03 10:50:56;;;;;;;96.57;35.97;;;;;;;5.80;83.51;100009.72;4908978;29;20149;-79
2021/11/03 10:53:23;;;;;;;;;;;;;;;5.88;82.85;100023.31;4925835;29;20405;-83
2021/11/03 10:56:03;;;;;;;83.63;32.15;;;;;;;5.83;83.33;100020.06;4923641;29;19918;-82
2021/11/03 10:58:37;;;;;;;81.03;31.15;;;;;;;5.81;82.99;99995.69;4955867;29;20142;-79
2021/11/03 11:01:09;;;;;;;80.25;31.13;;;;;;;5.81;84.11;100004.41;4956241;29;20126;-78
2021/11/03 11:03:36;;;;;;;91.82;33.72;;;;;;;5.81;83.65;99998.31;4939830;29;20062;-79
2021/11/03 11:06:13;;;;;;;82.28;33.28;;;;;;;5.88;83.23;100002.31;4940311;29;20047;-80
2021/11/03 11:08:55;;;;;;;77.70;28.00;;;;;;;5.88;83.16;100001.44;4908298;29;20062;-78
2021/11/03 11:11:22;;;;;;;83.97;31.45;;;;;;;5.86;83.36;99993.66;4924456;29;20086;-80
2021/11/03 11:13:57;;;;;;;76.60;30.02;;;;;;;5.88;83.36;100004.94;4939294;29;20436;-77
2021/11/03 11:16:55;;;;;;;75.88;30.48;;;;;;;5.82;83.53;99997.38;4941773;29;20050;-79
2021/11/03 11:19:21;;;;;;;75.88;29.45;;;;;;;5.80;84.35;100004.47;4897473;29;20076;-78
2021/11/03 11:22:13;;;;;;;73.05;29.05;;;;;;;5.82;84.28;99997.38;4898127;29;20071;-78
2021/11/03 11:25:00;;;;;;;81.55;31.85;;;;;;;5.82;84.13;99994.75;4890406;29;20060;-79